cubair logo

Welcome To CubAir Flight!

Cub Air Flight was founded in 2006, by Steve and Sharon Krog. Cub Air Flight school uses vintage Piper J3 Cub aircraft to instruct in, following a philosophy that “old school is still cool.” Cub Air Flight believes that these fine classic airplanes make better pilots by requiring more attention and flying skill than newer airplanes. We at Cub Air Flight hold that flying a vintage airplane is as much an art as it is a science.

The Piper J3 Cub is revered among aviators as a truly classic and iconic airplane. It has served as a trainer to more pilots than almost any airplane, earning a reputation as easy to fly but yet challenging enough to force students to continually better themselves. Cub Air uses two J3 Cubs, restored and maintained with the same attention to detail as a lovingly restored classic car. Cub Air also uses a Piper Cherokee for training requiring an aircraft with more advanced instruments.

Find Us Here!

Hartford Municipal

Airport (KHXF)
4200 Highway U
Hartford, WI 53027

Our Staff

Steve Krog
Jamie Weber

West Bend Weather

[Source: ADDS]
METAR
KETB 222115Z AUTO 30006KT 10SM BKN024 OVC030 19/15 A3005 RMK AO2 =
TAF

Waukesha Weather

[Source: ADDS]
METAR
KUES 222045Z 29006KT 10SM BKN019 18/13 A3006 =
TAF
KUES 222030Z 2221/2318 30004KT P6SM BKN015 FM222300 VRB03KT P6SM SCT025 FM230800 00000KT 1SM BR FEW035 FM231100 00000KT 1/2SM FG SCT008 FM231400 00000KT 2SM BR FEW015 FM231600 VRB03KT P6SM SCT045 =

Juneau Weather

[Source: ADDS]
METAR
KUNU 222115Z AUTO 00000KT 10SM OVC022 18/14 A3007 RMK AO2 T01760136 =
TAF

Fond Du Lac Weather

[Source: ADDS]
METAR
KFLD 222117Z AUTO 31004KT 10SM BKN030 20/14 A3004 RMK AO2 T02000139 =
TAF